createdAt,value
2024-02-19T00:00:39.933Z,0.70
2024-02-19T00:04:00.747Z,0.80
2024-02-19T00:07:04.224Z,0.80
2024-02-19T00:10:09.415Z,0.93
2024-02-19T00:13:34.879Z,0.95
2024-02-19T00:20:17.963Z,0.82
2024-02-19T00:27:09.898Z,0.70
2024-02-19T00:30:24.070Z,0.73
2024-02-19T00:33:26.726Z,0.80
2024-02-19T00:36:35.719Z,0.80
2024-02-19T00:39:42.459Z,0.90
2024-02-19T00:42:45.108Z,1.00
2024-02-19T00:45:49.176Z,0.73
2024-02-19T00:48:52.150Z,0.63
2024-02-19T00:51:58.857Z,0.90
2024-02-19T00:55:01.485Z,0.68
2024-02-19T00:58:05.785Z,0.68
2024-02-19T01:01:41.915Z,0.80
2024-02-19T01:04:46.284Z,0.75
2024-02-19T01:14:44.870Z,0.70
2024-02-19T01:18:08.733Z,0.80
2024-02-19T01:21:12.976Z,0.63
2024-02-19T01:24:19.001Z,0.70
2024-02-19T01:27:35.904Z,0.60
2024-02-19T01:30:45.858Z,0.80
2024-02-19T01:33:52.856Z,0.60
2024-02-19T01:40:48.790Z,0.60
2024-02-19T01:44:05.591Z,0.70
2024-02-19T01:47:19.792Z,0.70
2024-02-19T01:50:40.827Z,0.45
2024-02-19T01:57:03.683Z,0.60
2024-02-19T02:00:11.696Z,0.63
2024-02-19T02:03:26.681Z,0.60
2024-02-19T02:06:31.209Z,0.52
2024-02-19T02:09:39.951Z,0.60
2024-02-19T02:12:42.778Z,0.60
2024-02-19T02:19:07.390Z,0.47
2024-02-19T02:29:23.462Z,0.47
2024-02-19T02:32:35.532Z,0.47
2024-02-19T02:36:18.418Z,0.40
2024-02-19T02:42:57.168Z,0.40
2024-02-19T02:46:15.968Z,0.65
2024-02-19T02:49:18.694Z,0.30
2024-02-19T02:52:22.124Z,0.45
2024-02-19T02:55:38.638Z,0.50
2024-02-19T02:58:48.579Z,0.47
2024-02-19T03:01:55.697Z,0.43
2024-02-19T03:05:15.145Z,0.68
2024-02-19T03:08:26.488Z,0.30
2024-02-19T03:11:36.491Z,0.32
2024-02-19T03:14:46.664Z,0.40
2024-02-19T03:18:07.576Z,0.30
2024-02-19T03:21:20.393Z,0.50
2024-02-19T03:24:29.590Z,0.50
2024-02-19T03:28:00.876Z,0.43
2024-02-19T03:31:08.668Z,0.38
2024-02-19T03:34:23.655Z,0.30
2024-02-19T03:37:27.349Z,0.30
2024-02-19T03:40:49.121Z,0.40
2024-02-19T03:44:21.847Z,0.32
2024-02-19T03:47:25.193Z,0.32
2024-02-19T03:57:24.690Z,0.30
2024-02-19T04:00:27.989Z,0.50
2024-02-19T04:03:35.615Z,0.30
2024-02-19T04:06:41.958Z,0.40
2024-02-19T04:09:48.311Z,0.22
2024-02-19T04:13:29.793Z,0.28
2024-02-19T04:16:45.580Z,0.28
2024-02-19T04:20:02.368Z,0.30
2024-02-19T04:23:06.372Z,0.30
2024-02-19T04:26:10.372Z,0.20
2024-02-19T04:29:13.518Z,0.28
2024-02-19T04:32:16.671Z,0.25
2024-02-19T04:35:22.657Z,0.20
2024-02-19T04:38:30.752Z,0.25
2024-02-19T04:55:29.109Z,0.28
2024-02-19T04:58:32.262Z,0.43
2024-02-19T05:01:35.308Z,0.20
2024-02-19T05:07:41.307Z,0.25
2024-02-19T05:10:45.861Z,0.30
2024-02-19T05:13:53.339Z,0.20
2024-02-19T05:16:57.369Z,0.10
2024-02-19T05:20:00.009Z,0.20
2024-02-19T05:26:09.590Z,0.13
2024-02-19T05:29:13.530Z,0.10
2024-02-19T05:32:20.051Z,0.10
2024-02-19T05:35:28.399Z,0.10
2024-02-19T05:38:31.635Z,0.10
2024-02-19T05:41:37.687Z,0.20
2024-02-19T05:44:40.308Z,0.10
2024-02-19T05:47:43.665Z,0.00
2024-02-19T05:50:46.389Z,0.08
2024-02-19T05:53:50.328Z,0.20
2024-02-19T05:56:54.810Z,0.17
2024-02-19T06:00:01.043Z,0.10
2024-02-19T06:03:13.234Z,0.10
2024-02-19T06:06:16.534Z,0.10
2024-02-19T06:09:24.554Z,0.10
2024-02-19T06:12:30.317Z,0.15
2024-02-19T06:15:32.972Z,0.10
2024-02-19T06:18:36.125Z,0.10
2024-02-19T06:21:43.323Z,0.10
2024-02-19T06:24:48.458Z,0.10
2024-02-19T06:27:56.532Z,0.10
2024-02-19T06:31:04.544Z,0.10
2024-02-19T06:49:23.799Z,0.10
2024-02-19T06:52:33.164Z,0.20
2024-02-19T06:55:36.793Z,0.00
2024-02-19T06:58:52.995Z,0.10
2024-02-19T07:01:56.322Z,0.10
2024-02-19T07:05:02.236Z,0.10
2024-02-19T07:08:06.140Z,0.10
2024-02-19T07:11:14.806Z,0.00
2024-02-19T07:14:17.672Z,0.20
2024-02-19T07:17:20.365Z,0.10
2024-02-19T07:20:24.371Z,0.10
2024-02-19T07:23:26.982Z,0.10
2024-02-19T07:26:29.603Z,0.10
2024-02-19T07:29:32.248Z,0.28
2024-02-19T07:32:35.160Z,0.10
2024-02-19T07:38:42.439Z,0.00
2024-02-19T07:41:45.028Z,0.10
2024-02-19T07:44:47.778Z,0.10
2024-02-19T07:47:51.848Z,0.00
2024-02-19T07:50:56.009Z,0.10
2024-02-19T07:53:58.781Z,0.10
2024-02-19T07:57:01.343Z,0.10
2024-02-19T08:00:05.075Z,0.20
2024-02-19T08:03:08.584Z,0.15
2024-02-19T08:06:12.727Z,0.08
2024-02-19T08:09:15.431Z,0.25
2024-02-19T08:12:18.171Z,0.10
2024-02-19T08:15:21.132Z,0.10
2024-02-19T08:18:24.727Z,0.10
2024-02-19T08:21:29.005Z,0.10
2024-02-19T08:24:31.719Z,0.10
2024-02-19T08:27:34.461Z,0.20
2024-02-19T08:30:37.258Z,0.10
2024-02-19T08:33:40.127Z,0.10
2024-02-19T08:36:44.429Z,0.15
2024-02-19T08:39:48.876Z,0.13
2024-02-19T08:42:56.353Z,0.10
2024-02-19T08:45:59.736Z,0.10
2024-02-19T08:49:05.834Z,0.08
2024-02-19T08:52:14.180Z,0.20
2024-02-19T08:55:17.422Z,0.10
2024-02-19T08:58:20.432Z,0.10
2024-02-19T09:01:23.416Z,0.20
2024-02-19T09:04:26.389Z,0.25
2024-02-19T09:10:38.271Z,0.20
2024-02-19T09:13:42.663Z,0.20
2024-02-19T09:16:46.611Z,0.10
2024-02-19T09:19:50.896Z,0.10
2024-02-19T09:22:54.857Z,0.10
2024-02-19T09:25:58.589Z,0.20
2024-02-19T09:29:04.050Z,0.20
2024-02-19T09:32:18.961Z,0.17
2024-02-19T09:35:24.375Z,0.17
2024-02-19T09:38:28.436Z,0.22
2024-02-19T09:41:31.314Z,0.22
2024-02-19T09:47:45.459Z,0.17
2024-02-19T09:51:01.655Z,0.30
2024-02-19T09:54:12.345Z,0.15
2024-02-19T09:57:16.874Z,0.20
2024-02-19T10:00:22.972Z,0.10
2024-02-19T10:03:28.446Z,0.20
2024-02-19T10:06:36.643Z,0.10
2024-02-19T10:09:41.192Z,0.17
2024-02-19T10:12:44.750Z,0.22
2024-02-19T10:15:52.019Z,0.20
2024-02-19T10:19:07.325Z,0.10
2024-02-19T10:22:12.673Z,0.10
2024-02-19T10:25:25.280Z,0.40
2024-02-19T10:28:36.803Z,0.20
2024-02-19T10:31:42.786Z,0.17
2024-02-19T10:34:57.425Z,0.10
2024-02-19T10:38:06.237Z,0.38
2024-02-19T10:41:17.680Z,0.40
2024-02-19T10:44:22.893Z,0.25
2024-02-19T10:47:26.921Z,0.20
2024-02-19T10:50:35.996Z,0.20
2024-02-19T10:53:43.666Z,0.30
2024-02-19T10:56:59.756Z,0.40
2024-02-19T11:00:12.983Z,0.20
2024-02-19T11:03:17.295Z,0.30
2024-02-19T11:06:34.422Z,0.30
2024-02-19T11:09:40.388Z,0.20
2024-02-19T11:12:44.524Z,0.65
2024-02-19T11:15:49.574Z,0.10
2024-02-19T11:19:02.847Z,0.10
2024-02-19T11:22:22.733Z,0.15
2024-02-19T11:25:25.375Z,0.32
2024-02-19T11:28:34.654Z,0.30
2024-02-19T11:31:48.989Z,0.30
2024-02-19T11:35:20.584Z,0.20
2024-02-19T11:38:25.472Z,0.30
2024-02-19T11:41:28.593Z,0.30
2024-02-19T11:44:34.345Z,0.25
2024-02-19T11:47:41.612Z,0.20
2024-02-19T11:50:47.271Z,0.20
2024-02-19T11:53:52.850Z,0.25
2024-02-19T11:56:58.723Z,0.20
2024-02-19T12:00:07.679Z,0.20
2024-02-19T12:03:12.342Z,0.28
2024-02-19T12:06:23.187Z,0.20
2024-02-19T12:09:26.216Z,0.30
2024-02-19T12:12:34.661Z,0.20
2024-02-19T12:15:39.191Z,0.20
2024-02-19T12:18:46.994Z,0.30
2024-02-19T12:21:51.471Z,0.20
2024-02-19T12:24:55.893Z,0.35
2024-02-19T12:27:59.338Z,0.22
2024-02-19T12:31:03.987Z,0.20
2024-02-19T12:34:07.689Z,0.30
2024-02-19T12:37:11.073Z,0.20
2024-02-19T12:40:15.437Z,0.20
2024-02-19T12:43:19.374Z,0.30
2024-02-19T12:46:33.746Z,0.10
2024-02-19T12:49:39.590Z,0.20
2024-02-19T12:52:46.224Z,0.20
2024-02-19T12:55:53.631Z,0.20
2024-02-19T12:58:56.756Z,0.20
2024-02-19T13:02:05.713Z,0.20
2024-02-19T13:05:21.730Z,0.10
2024-02-19T13:08:35.873Z,0.20
2024-02-19T13:12:07.039Z,0.20
2024-02-19T13:15:10.764Z,0.20
2024-02-19T13:18:16.466Z,0.15
2024-02-19T13:21:22.275Z,0.30
2024-02-19T13:31:27.379Z,0.25
2024-02-19T13:34:31.617Z,0.30
2024-02-19T13:37:48.300Z,0.30
2024-02-19T13:40:54.465Z,0.32
2024-02-19T13:44:10.455Z,0.30
2024-02-19T13:47:24.050Z,0.25
2024-02-19T13:50:45.352Z,0.30
2024-02-19T13:54:11.708Z,0.40
2024-02-19T13:57:18.393Z,0.20
2024-02-19T14:00:24.479Z,0.30
2024-02-19T14:06:47.907Z,0.30
2024-02-19T14:09:51.925Z,0.30
2024-02-19T14:12:54.905Z,0.20
2024-02-19T14:16:00.978Z,0.40
2024-02-19T14:19:04.346Z,0.40
2024-02-19T14:22:10.959Z,0.50
2024-02-19T14:25:14.083Z,0.30
2024-02-19T14:28:20.863Z,0.40
2024-02-19T14:31:26.574Z,0.30
2024-02-19T14:34:43.276Z,0.57
2024-02-19T14:37:51.027Z,0.47
2024-02-19T14:41:07.391Z,0.40
2024-02-19T14:44:10.820Z,0.40
2024-02-19T14:47:15.666Z,0.40
2024-02-19T14:50:18.742Z,0.30
2024-02-19T14:53:25.461Z,0.25
2024-02-19T14:56:38.678Z,0.30
2024-02-19T14:59:44.541Z,0.38
2024-02-19T15:02:47.564Z,0.38
2024-02-19T15:05:57.339Z,0.30
2024-02-19T15:13:07.184Z,0.30
2024-02-19T15:16:25.073Z,0.30
2024-02-19T15:19:37.068Z,0.40
2024-02-19T15:22:48.233Z,0.30
2024-02-19T15:25:53.035Z,0.40
2024-02-19T15:29:01.109Z,0.30
2024-02-19T15:32:17.152Z,0.47
2024-02-19T15:35:32.486Z,0.22
2024-02-19T15:38:51.709Z,0.43
2024-02-19T15:42:10.876Z,0.32
2024-02-19T15:48:37.869Z,0.30
2024-02-19T15:51:45.077Z,0.60
2024-02-19T15:54:52.634Z,0.40
2024-02-19T15:57:58.336Z,0.30
2024-02-19T16:01:06.022Z,0.40
2024-02-19T16:04:09.067Z,0.38
2024-02-19T16:10:49.783Z,0.50
2024-02-19T16:13:55.268Z,0.35
2024-02-19T16:16:58.447Z,0.40
2024-02-19T16:20:02.789Z,0.50
2024-02-19T16:23:07.797Z,0.30
2024-02-19T16:26:11.456Z,0.50
2024-02-19T16:29:16.689Z,0.50
2024-02-19T16:32:21.237Z,0.47
2024-02-19T16:35:26.402Z,0.40
2024-02-19T16:38:31.616Z,0.52
2024-02-19T16:41:35.730Z,0.75
2024-02-19T16:44:40.901Z,0.55
2024-02-19T16:47:43.783Z,0.47
2024-02-19T16:50:50.322Z,0.50
2024-02-19T16:53:55.326Z,0.52
2024-02-19T16:57:00.716Z,0.60
2024-02-19T17:00:08.322Z,0.45
2024-02-19T17:03:10.851Z,0.60
2024-02-19T17:06:14.648Z,0.60
2024-02-19T17:09:20.164Z,0.32
2024-02-19T17:12:24.410Z,0.30
2024-02-19T17:15:29.870Z,0.50
2024-02-19T17:18:34.407Z,0.70
2024-02-19T17:21:39.059Z,0.40
2024-02-19T17:24:43.342Z,0.50
2024-02-19T17:27:52.489Z,0.57
2024-02-19T17:31:01.669Z,0.60
2024-02-19T17:34:05.523Z,0.50
2024-02-19T17:37:09.148Z,0.45
2024-02-19T17:40:17.620Z,0.57
2024-02-19T17:43:20.155Z,0.60
2024-02-19T17:46:24.339Z,0.50
2024-02-19T17:49:27.782Z,0.60
2024-02-19T17:52:32.819Z,0.60
2024-02-19T17:55:35.738Z,0.45
2024-02-19T17:58:41.992Z,0.68
2024-02-19T18:01:48.932Z,0.65
2024-02-19T18:04:55.472Z,0.50
2024-02-19T18:07:58.588Z,0.70
2024-02-19T18:14:09.637Z,0.80
2024-02-19T18:17:13.690Z,0.65
2024-02-19T18:20:16.728Z,0.52
2024-02-19T18:26:25.258Z,0.52
2024-02-19T18:29:28.819Z,0.70
2024-02-19T18:32:35.883Z,1.02
2024-02-19T18:35:42.134Z,0.98
2024-02-19T18:38:49.222Z,0.80
2024-02-19T18:41:52.356Z,0.70
2024-02-19T18:44:56.209Z,0.80
2024-02-19T18:48:01.705Z,0.75
2024-02-19T18:51:07.176Z,0.65
2024-02-19T18:54:09.709Z,0.65
2024-02-19T18:57:16.011Z,0.60
2024-02-19T19:00:22.172Z,0.73
2024-02-19T19:03:31.926Z,0.60
2024-02-19T19:09:56.205Z,0.85
2024-02-19T19:12:59.810Z,0.80
2024-02-19T19:16:04.033Z,0.95
2024-02-19T19:19:08.923Z,0.57
2024-02-19T19:22:16.224Z,0.85
2024-02-19T19:25:19.881Z,0.65
2024-02-19T19:28:22.773Z,0.80
2024-02-19T19:31:27.981Z,0.50
2024-02-19T19:34:32.638Z,0.50
2024-02-19T19:37:51.843Z,1.08
2024-02-19T19:41:04.845Z,0.70
2024-02-19T19:44:08.201Z,0.65
2024-02-19T19:47:11.042Z,0.70
2024-02-19T19:53:25.924Z,0.60
2024-02-19T19:56:28.843Z,1.00
2024-02-19T19:59:32.349Z,0.80
2024-02-19T20:02:40.127Z,0.85
2024-02-19T20:05:45.220Z,0.70
2024-02-19T20:08:49.126Z,0.70
2024-02-19T20:11:53.617Z,0.80
2024-02-19T20:14:59.181Z,0.60
2024-02-19T20:18:04.292Z,0.70
2024-02-19T20:21:09.280Z,0.50
2024-02-19T20:24:12.109Z,0.57
2024-02-19T20:27:15.675Z,0.70
2024-02-19T20:30:22.461Z,0.60
2024-02-19T20:33:30.097Z,0.95
2024-02-19T20:36:38.855Z,0.60
2024-02-19T20:39:42.956Z,0.70
2024-02-19T20:42:46.507Z,0.43
2024-02-19T20:45:50.149Z,0.65
2024-02-19T20:48:54.534Z,0.60
2024-02-19T20:52:02.812Z,0.57
2024-02-19T20:55:10.485Z,0.55
2024-02-19T20:58:14.212Z,0.80
2024-02-19T21:01:17.847Z,0.63
2024-02-19T21:04:21.173Z,0.65
2024-02-19T21:07:25.328Z,0.60
2024-02-19T21:10:28.726Z,0.50
2024-02-19T21:13:31.594Z,0.70
2024-02-19T21:16:35.499Z,0.60
2024-02-19T21:23:05.337Z,0.60
2024-02-19T21:26:17.071Z,0.82
2024-02-19T21:29:23.303Z,0.70
2024-02-19T21:32:27.109Z,0.47
2024-02-19T21:35:29.861Z,0.60
2024-02-19T21:38:43.159Z,0.73
2024-02-19T21:41:50.238Z,0.77
2024-02-19T21:44:53.047Z,0.70
2024-02-19T21:47:56.418Z,0.65
2024-02-19T21:50:59.668Z,0.55
2024-02-19T21:54:36.209Z,0.68
2024-02-19T21:57:54.789Z,0.70
2024-02-19T22:01:26.225Z,0.60
2024-02-19T22:04:32.194Z,0.70
2024-02-19T22:07:45.742Z,0.80
2024-02-19T22:11:11.515Z,0.50
2024-02-19T22:14:35.813Z,0.75
2024-02-19T22:17:38.397Z,0.40
2024-02-19T22:20:41.017Z,0.43
2024-02-19T22:24:03.178Z,0.65
2024-02-19T22:27:29.990Z,0.60
2024-02-19T22:34:19.663Z,0.63
2024-02-19T22:37:22.286Z,0.82
2024-02-19T22:40:25.188Z,0.60
2024-02-19T22:46:33.215Z,0.50
2024-02-19T22:49:36.394Z,0.60
2024-02-19T22:52:43.789Z,0.70
2024-02-19T22:55:47.987Z,0.50
2024-02-19T22:59:00.928Z,0.60
2024-02-19T23:02:10.173Z,0.50
2024-02-19T23:05:14.497Z,0.63
2024-02-19T23:08:17.830Z,0.40
2024-02-19T23:11:25.802Z,0.52
2024-02-19T23:18:12.877Z,0.50
2024-02-19T23:21:28.542Z,0.55
2024-02-19T23:24:57.185Z,0.60
2024-02-19T23:31:54.818Z,0.45
2024-02-19T23:38:53.642Z,0.68
2024-02-19T23:42:19.495Z,0.60
2024-02-19T23:49:06.668Z,0.63
2024-02-19T23:52:24.703Z,0.57
2024-02-19T23:55:42.559Z,0.60
2024-02-19T23:58:48.372Z,0.50
